sensor_id;sensor_type;location;lat;lon;timestamp;temperature;humidity
17348;DHT22;8791;50.876;4.342;2023-09-18T00:00:05;22.10;99.90
17348;DHT22;8791;50.876;4.342;2023-09-18T00:02:37;22.20;99.90
17348;DHT22;8791;50.876;4.342;2023-09-18T00:05:04;22.20;99.90
17348;DHT22;8791;50.876;4.342;2023-09-18T00:07:33;22.30;99.90
17348;DHT22;8791;50.876;4.342;2023-09-18T00:09:59;22.40;99.90
17348;DHT22;8791;50.876;4.342;2023-09-18T00:12:26;22.40;99.90
17348;DHT22;8791;50.876;4.342;2023-09-18T00:14:53;22.40;99.90
17348;DHT22;8791;50.876;4.342;2023-09-18T00:17:20;22.50;99.90
17348;DHT22;8791;50.876;4.342;2023-09-18T00:19:49;22.50;99.90
17348;DHT22;8791;50.876;4.342;2023-09-18T00:22:17;22.60;99.90
17348;DHT22;8791;50.876;4.342;2023-09-18T00:24:45;22.70;99.90
17348;DHT22;8791;50.876;4.342;2023-09-18T00:27:13;22.80;99.90
17348;DHT22;8791;50.876;4.342;2023-09-18T00:29:41;22.80;99.90
17348;DHT22;8791;50.876;4.342;2023-09-18T00:32:08;22.70;99.90
17348;DHT22;8791;50.876;4.342;2023-09-18T00:34:35;22.70;99.90
17348;DHT22;8791;50.876;4.342;2023-09-18T00:37:02;22.70;99.90
17348;DHT22;8791;50.876;4.342;2023-09-18T00:39:29;22.80;99.90
17348;DHT22;8791;50.876;4.342;2023-09-18T00:41:58;22.90;99.90
17348;DHT22;8791;50.876;4.342;2023-09-18T00:44:25;23.00;99.90
17348;DHT22;8791;50.876;4.342;2023-09-18T00:46:52;22.80;99.90
17348;DHT22;8791;50.876;4.342;2023-09-18T00:49:22;22.50;99.90
17348;DHT22;8791;50.876;4.342;2023-09-18T00:51:50;22.30;99.90
17348;DHT22;8791;50.876;4.342;2023-09-18T00:54:18;22.10;99.90
17348;DHT22;8791;50.876;4.342;2023-09-18T00:56:46;22.00;99.90
17348;DHT22;8791;50.876;4.342;2023-09-18T00:59:15;21.80;99.90
17348;DHT22;8791;50.876;4.342;2023-09-18T01:01:42;21.70;99.90
17348;DHT22;8791;50.876;4.342;2023-09-18T01:04:09;21.60;99.90
17348;DHT22;8791;50.876;4.342;2023-09-18T01:06:38;21.70;99.90
17348;DHT22;8791;50.876;4.342;2023-09-18T01:09:05;21.80;99.90
17348;DHT22;8791;50.876;4.342;2023-09-18T01:11:43;21.90;99.90
17348;DHT22;8791;50.876;4.342;2023-09-18T01:14:16;21.90;99.90
17348;DHT22;8791;50.876;4.342;2023-09-18T01:16:49;21.80;99.90
17348;DHT22;8791;50.876;4.342;2023-09-18T01:19:35;21.80;99.90
17348;DHT22;8791;50.876;4.342;2023-09-18T01:22:03;21.90;99.90
17348;DHT22;8791;50.876;4.342;2023-09-18T01:24:32;22.00;99.90
17348;DHT22;8791;50.876;4.342;2023-09-18T01:26:59;21.90;99.90
17348;DHT22;8791;50.876;4.342;2023-09-18T01:29:26;21.80;99.90
17348;DHT22;8791;50.876;4.342;2023-09-18T01:31:53;21.80;99.90
17348;DHT22;8791;50.876;4.342;2023-09-18T01:34:22;21.80;99.90
17348;DHT22;8791;50.876;4.342;2023-09-18T01:36:51;21.80;99.90
17348;DHT22;8791;50.876;4.342;2023-09-18T01:39:20;21.90;99.90
17348;DHT22;8791;50.876;4.342;2023-09-18T01:41:49;21.90;99.90
17348;DHT22;8791;50.876;4.342;2023-09-18T01:44:16;22.10;99.90
17348;DHT22;8791;50.876;4.342;2023-09-18T01:46:44;22.10;99.90
17348;DHT22;8791;50.876;4.342;2023-09-18T01:49:11;21.80;99.90
17348;DHT22;8791;50.876;4.342;2023-09-18T01:51:38;21.70;99.90
17348;DHT22;8791;50.876;4.342;2023-09-18T01:54:05;21.50;99.90
17348;DHT22;8791;50.876;4.342;2023-09-18T01:56:32;21.50;99.90
17348;DHT22;8791;50.876;4.342;2023-09-18T01:59:00;21.60;99.90
17348;DHT22;8791;50.876;4.342;2023-09-18T02:01:27;21.70;99.90
17348;DHT22;8791;50.876;4.342;2023-09-18T02:03:55;21.70;99.90
17348;DHT22;8791;50.876;4.342;2023-09-18T02:06:22;21.50;99.90
17348;DHT22;8791;50.876;4.342;2023-09-18T02:08:49;21.40;99.90
17348;DHT22;8791;50.876;4.342;2023-09-18T02:11:16;21.40;99.90
17348;DHT22;8791;50.876;4.342;2023-09-18T02:13:42;21.40;99.90
17348;DHT22;8791;50.876;4.342;2023-09-18T02:16:11;21.40;99.90
17348;DHT22;8791;50.876;4.342;2023-09-18T02:18:37;21.50;99.90
17348;DHT22;8791;50.876;4.342;2023-09-18T02:21:04;21.50;99.90
17348;DHT22;8791;50.876;4.342;2023-09-18T02:23:31;21.40;99.90
17348;DHT22;8791;50.876;4.342;2023-09-18T02:25:58;21.30;99.90
17348;DHT22;8791;50.876;4.342;2023-09-18T02:28:25;21.40;99.90
17348;DHT22;8791;50.876;4.342;2023-09-18T02:30:52;21.60;99.90
17348;DHT22;8791;50.876;4.342;2023-09-18T02:33:20;21.40;99.90
17348;DHT22;8791;50.876;4.342;2023-09-18T02:35:47;21.30;99.90
17348;DHT22;8791;50.876;4.342;2023-09-18T02:38:14;21.30;99.90
17348;DHT22;8791;50.876;4.342;2023-09-18T02:40:41;21.40;99.90
17348;DHT22;8791;50.876;4.342;2023-09-18T02:43:08;21.30;99.90
17348;DHT22;8791;50.876;4.342;2023-09-18T02:45:35;21.30;99.90
17348;DHT22;8791;50.876;4.342;2023-09-18T02:48:02;21.20;99.90
17348;DHT22;8791;50.876;4.342;2023-09-18T02:50:30;21.20;99.90
17348;DHT22;8791;50.876;4.342;2023-09-18T02:52:57;21.30;99.90
17348;DHT22;8791;50.876;4.342;2023-09-18T02:55:24;21.30;99.90
17348;DHT22;8791;50.876;4.342;2023-09-18T02:57:51;21.30;99.90
17348;DHT22;8791;50.876;4.342;2023-09-18T03:00:18;21.40;99.90
17348;DHT22;8791;50.876;4.342;2023-09-18T03:02:45;21.40;99.90
17348;DHT22;8791;50.876;4.342;2023-09-18T03:05:12;21.30;99.90
17348;DHT22;8791;50.876;4.342;2023-09-18T03:07:40;21.20;99.90
17348;DHT22;8791;50.876;4.342;2023-09-18T03:10:08;21.30;99.90
17348;DHT22;8791;50.876;4.342;2023-09-18T03:12:39;21.30;99.90
17348;DHT22;8791;50.876;4.342;2023-09-18T03:15:06;21.20;99.90
17348;DHT22;8791;50.876;4.342;2023-09-18T03:17:33;21.30;99.90
17348;DHT22;8791;50.876;4.342;2023-09-18T03:20:00;21.30;99.90
17348;DHT22;8791;50.876;4.342;2023-09-18T03:22:27;21.40;99.90
17348;DHT22;8791;50.876;4.342;2023-09-18T03:24:55;21.30;99.90
17348;DHT22;8791;50.876;4.342;2023-09-18T03:27:22;21.30;99.90
17348;DHT22;8791;50.876;4.342;2023-09-18T03:29:54;21.30;99.90
17348;DHT22;8791;50.876;4.342;2023-09-18T03:32:21;21.40;99.90
17348;DHT22;8791;50.876;4.342;2023-09-18T03:34:50;21.40;99.90
17348;DHT22;8791;50.876;4.342;2023-09-18T03:37:17;21.40;99.90
17348;DHT22;8791;50.876;4.342;2023-09-18T03:39:44;21.40;99.90
17348;DHT22;8791;50.876;4.342;2023-09-18T03:42:13;21.30;99.90
17348;DHT22;8791;50.876;4.342;2023-09-18T03:44:39;21.20;99.90
17348;DHT22;8791;50.876;4.342;2023-09-18T03:47:06;21.20;99.90
17348;DHT22;8791;50.876;4.342;2023-09-18T03:49:33;21.20;99.90
17348;DHT22;8791;50.876;4.342;2023-09-18T03:52:00;21.10;99.90
17348;DHT22;8791;50.876;4.342;2023-09-18T03:54:28;21.10;99.90
17348;DHT22;8791;50.876;4.342;2023-09-18T03:56:55;21.10;99.90
17348;DHT22;8791;50.876;4.342;2023-09-18T03:59:23;21.10;99.90
17348;DHT22;8791;50.876;4.342;2023-09-18T04:01:50;21.10;99.90
17348;DHT22;8791;50.876;4.342;2023-09-18T04:04:17;21.00;99.90
17348;DHT22;8791;50.876;4.342;2023-09-18T04:06:44;21.00;99.90
17348;DHT22;8791;50.876;4.342;2023-09-18T04:09:11;21.00;99.90
17348;DHT22;8791;50.876;4.342;2023-09-18T04:11:40;20.90;99.90
17348;DHT22;8791;50.876;4.342;2023-09-18T04:14:07;21.00;99.90
17348;DHT22;8791;50.876;4.342;2023-09-18T04:16:35;21.00;99.90
17348;DHT22;8791;50.876;4.342;2023-09-18T04:19:05;20.90;99.90
17348;DHT22;8791;50.876;4.342;2023-09-18T04:21:31;20.80;99.90
17348;DHT22;8791;50.876;4.342;2023-09-18T04:23:58;20.80;99.90
17348;DHT22;8791;50.876;4.342;2023-09-18T04:26:26;20.80;99.90
17348;DHT22;8791;50.876;4.342;2023-09-18T04:28:55;20.80;99.90
17348;DHT22;8791;50.876;4.342;2023-09-18T04:31:22;20.80;99.90
17348;DHT22;8791;50.876;4.342;2023-09-18T04:33:50;20.80;99.90
17348;DHT22;8791;50.876;4.342;2023-09-18T04:36:17;20.80;99.90
17348;DHT22;8791;50.876;4.342;2023-09-18T04:38:44;20.70;99.90
17348;DHT22;8791;50.876;4.342;2023-09-18T04:41:10;20.70;99.90
17348;DHT22;8791;50.876;4.342;2023-09-18T04:43:37;20.70;99.90
17348;DHT22;8791;50.876;4.342;2023-09-18T04:46:05;20.60;99.90
17348;DHT22;8791;50.876;4.342;2023-09-18T04:48:32;20.60;99.90
17348;DHT22;8791;50.876;4.342;2023-09-18T04:51:00;20.50;99.90
17348;DHT22;8791;50.876;4.342;2023-09-18T04:53:29;20.40;99.90
17348;DHT22;8791;50.876;4.342;2023-09-18T04:55:56;20.40;99.90
17348;DHT22;8791;50.876;4.342;2023-09-18T04:58:23;20.30;99.90
17348;DHT22;8791;50.876;4.342;2023-09-18T05:00:54;20.30;99.90
17348;DHT22;8791;50.876;4.342;2023-09-18T05:03:21;20.30;99.90
17348;DHT22;8791;50.876;4.342;2023-09-18T05:05:47;20.30;99.90
17348;DHT22;8791;50.876;4.342;2023-09-18T05:08:16;20.30;99.90
17348;DHT22;8791;50.876;4.342;2023-09-18T05:10:43;20.20;99.90
17348;DHT22;8791;50.876;4.342;2023-09-18T05:13:11;20.20;99.90
17348;DHT22;8791;50.876;4.342;2023-09-18T05:15:38;20.30;99.90
17348;DHT22;8791;50.876;4.342;2023-09-18T05:18:05;20.20;99.90
17348;DHT22;8791;50.876;4.342;2023-09-18T05:20:33;20.20;99.90
17348;DHT22;8791;50.876;4.342;2023-09-18T05:23:01;20.30;99.90
17348;DHT22;8791;50.876;4.342;2023-09-18T05:25:30;20.20;99.90
17348;DHT22;8791;50.876;4.342;2023-09-18T05:27:59;20.30;99.90
17348;DHT22;8791;50.876;4.342;2023-09-18T05:30:27;20.20;99.90
17348;DHT22;8791;50.876;4.342;2023-09-18T05:32:55;20.00;99.90
17348;DHT22;8791;50.876;4.342;2023-09-18T05:35:22;20.00;99.90
17348;DHT22;8791;50.876;4.342;2023-09-18T05:37:49;20.00;99.90
17348;DHT22;8791;50.876;4.342;2023-09-18T05:40:16;20.10;99.90
17348;DHT22;8791;50.876;4.342;2023-09-18T05:42:45;20.10;99.90
17348;DHT22;8791;50.876;4.342;2023-09-18T05:45:12;19.90;99.90
17348;DHT22;8791;50.876;4.342;2023-09-18T05:47:41;20.00;99.90
17348;DHT22;8791;50.876;4.342;2023-09-18T05:50:09;19.90;99.90
17348;DHT22;8791;50.876;4.342;2023-09-18T05:52:41;19.90;99.90
17348;DHT22;8791;50.876;4.342;2023-09-18T05:55:08;19.90;99.90
17348;DHT22;8791;50.876;4.342;2023-09-18T05:57:35;19.90;99.90
17348;DHT22;8791;50.876;4.342;2023-09-18T06:00:05;19.80;99.90
17348;DHT22;8791;50.876;4.342;2023-09-18T06:02:32;19.80;99.90
17348;DHT22;8791;50.876;4.342;2023-09-18T06:05:00;19.60;99.90
17348;DHT22;8791;50.876;4.342;2023-09-18T06:07:28;19.60;99.90
17348;DHT22;8791;50.876;4.342;2023-09-18T06:09:55;19.70;99.90
17348;DHT22;8791;50.876;4.342;2023-09-18T06:12:22;19.60;99.90
17348;DHT22;8791;50.876;4.342;2023-09-18T06:14:50;19.60;99.90
17348;DHT22;8791;50.876;4.342;2023-09-18T06:17:19;19.50;99.90
17348;DHT22;8791;50.876;4.342;2023-09-18T06:19:46;19.60;99.90
17348;DHT22;8791;50.876;4.342;2023-09-18T06:22:13;19.70;99.90
17348;DHT22;8791;50.876;4.342;2023-09-18T06:24:41;19.80;99.90
17348;DHT22;8791;50.876;4.342;2023-09-18T06:27:09;19.80;99.90
17348;DHT22;8791;50.876;4.342;2023-09-18T06:29:36;19.70;99.90
17348;DHT22;8791;50.876;4.342;2023-09-18T06:32:05;19.90;99.90
17348;DHT22;8791;50.876;4.342;2023-09-18T06:34:34;20.00;99.90
17348;DHT22;8791;50.876;4.342;2023-09-18T06:37:01;20.10;99.90
17348;DHT22;8791;50.876;4.342;2023-09-18T06:39:29;20.00;99.90
17348;DHT22;8791;50.876;4.342;2023-09-18T06:41:55;20.00;99.90
17348;DHT22;8791;50.876;4.342;2023-09-18T06:44:22;19.80;99.90
17348;DHT22;8791;50.876;4.342;2023-09-18T06:46:49;19.90;99.90
17348;DHT22;8791;50.876;4.342;2023-09-18T06:49:18;19.90;99.90
17348;DHT22;8791;50.876;4.342;2023-09-18T06:51:46;20.00;99.90
17348;DHT22;8791;50.876;4.342;2023-09-18T06:54:13;20.00;99.90
17348;DHT22;8791;50.876;4.342;2023-09-18T06:56:40;20.10;99.90
17348;DHT22;8791;50.876;4.342;2023-09-18T06:59:09;20.10;99.90
17348;DHT22;8791;50.876;4.342;2023-09-18T07:01:37;20.10;99.90
17348;DHT22;8791;50.876;4.342;2023-09-18T07:04:05;19.90;99.90
17348;DHT22;8791;50.876;4.342;2023-09-18T07:06:32;19.90;99.90
17348;DHT22;8791;50.876;4.342;2023-09-18T07:09:03;20.10;99.90
17348;DHT22;8791;50.876;4.342;2023-09-18T07:11:32;20.00;99.90
17348;DHT22;8791;50.876;4.342;2023-09-18T07:13:58;20.00;99.90
17348;DHT22;8791;50.876;4.342;2023-09-18T07:16:26;20.10;99.90
17348;DHT22;8791;50.876;4.342;2023-09-18T07:18:53;20.10;99.90
17348;DHT22;8791;50.876;4.342;2023-09-18T07:21:20;20.10;99.90
17348;DHT22;8791;50.876;4.342;2023-09-18T07:23:47;20.00;99.90
17348;DHT22;8791;50.876;4.342;2023-09-18T07:26:15;19.90;99.90
17348;DHT22;8791;50.876;4.342;2023-09-18T07:28:42;19.90;99.90
17348;DHT22;8791;50.876;4.342;2023-09-18T07:31:11;19.90;99.90
17348;DHT22;8791;50.876;4.342;2023-09-18T07:33:40;20.00;99.90
17348;DHT22;8791;50.876;4.342;2023-09-18T07:36:07;19.90;99.90
17348;DHT22;8791;50.876;4.342;2023-09-18T07:38:35;20.00;99.90
17348;DHT22;8791;50.876;4.342;2023-09-18T07:41:03;20.00;99.90
17348;DHT22;8791;50.876;4.342;2023-09-18T07:43:31;20.10;99.90
17348;DHT22;8791;50.876;4.342;2023-09-18T07:45:58;20.00;99.90
17348;DHT22;8791;50.876;4.342;2023-09-18T07:48:25;20.10;99.90
17348;DHT22;8791;50.876;4.342;2023-09-18T07:50:52;20.10;99.90
17348;DHT22;8791;50.876;4.342;2023-09-18T07:53:20;20.20;99.90
17348;DHT22;8791;50.876;4.342;2023-09-18T07:55:48;20.20;99.90
17348;DHT22;8791;50.876;4.342;2023-09-18T07:58:15;20.40;99.90
17348;DHT22;8791;50.876;4.342;2023-09-18T08:00:43;20.50;99.90
17348;DHT22;8791;50.876;4.342;2023-09-18T08:03:10;20.60;99.90
17348;DHT22;8791;50.876;4.342;2023-09-18T08:05:37;20.60;99.90
17348;DHT22;8791;50.876;4.342;2023-09-18T08:08:04;20.70;99.90
17348;DHT22;8791;50.876;4.342;2023-09-18T08:10:32;20.70;99.90
17348;DHT22;8791;50.876;4.342;2023-09-18T08:12:59;20.60;99.90
17348;DHT22;8791;50.876;4.342;2023-09-18T08:15:26;20.60;99.90
17348;DHT22;8791;50.876;4.342;2023-09-18T08:17:55;20.70;99.90
17348;DHT22;8791;50.876;4.342;2023-09-18T08:20:22;20.70;99.90
17348;DHT22;8791;50.876;4.342;2023-09-18T08:22:49;20.60;99.90
17348;DHT22;8791;50.876;4.342;2023-09-18T08:25:16;20.60;99.90
17348;DHT22;8791;50.876;4.342;2023-09-18T08:27:43;20.50;99.90
17348;DHT22;8791;50.876;4.342;2023-09-18T08:30:11;20.40;99.90
17348;DHT22;8791;50.876;4.342;2023-09-18T08:32:38;20.50;99.90
17348;DHT22;8791;50.876;4.342;2023-09-18T08:35:08;20.50;99.90
17348;DHT22;8791;50.876;4.342;2023-09-18T08:37:35;20.60;99.90
17348;DHT22;8791;50.876;4.342;2023-09-18T08:40:03;20.70;99.90
17348;DHT22;8791;50.876;4.342;2023-09-18T08:42:35;20.70;99.90
17348;DHT22;8791;50.876;4.342;2023-09-18T08:45:07;20.70;99.90
17348;DHT22;8791;50.876;4.342;2023-09-18T08:47:35;20.60;99.90
17348;DHT22;8791;50.876;4.342;2023-09-18T08:50:07;20.70;99.90
17348;DHT22;8791;50.876;4.342;2023-09-18T08:52:37;20.80;99.90
17348;DHT22;8791;50.876;4.342;2023-09-18T08:55:06;21.00;99.90
17348;DHT22;8791;50.876;4.342;2023-09-18T08:57:35;21.20;99.90
17348;DHT22;8791;50.876;4.342;2023-09-18T09:00:03;21.30;99.90
17348;DHT22;8791;50.876;4.342;2023-09-18T09:02:33;21.20;99.90
17348;DHT22;8791;50.876;4.342;2023-09-18T09:05:00;20.90;99.90
17348;DHT22;8791;50.876;4.342;2023-09-18T09:07:28;20.80;99.90
17348;DHT22;8791;50.876;4.342;2023-09-18T09:09:56;20.70;99.90
17348;DHT22;8791;50.876;4.342;2023-09-18T09:12:48;20.60;99.90
17348;DHT22;8791;50.876;4.342;2023-09-18T09:15:16;20.70;99.90
17348;DHT22;8791;50.876;4.342;2023-09-18T09:17:43;20.90;99.90
17348;DHT22;8791;50.876;4.342;2023-09-18T09:20:11;21.00;99.90
17348;DHT22;8791;50.876;4.342;2023-09-18T09:22:40;21.10;99.90
17348;DHT22;8791;50.876;4.342;2023-09-18T09:25:22;21.00;99.90
17348;DHT22;8791;50.876;4.342;2023-09-18T09:27:49;21.00;99.90
17348;DHT22;8791;50.876;4.342;2023-09-18T09:30:22;20.80;99.90
17348;DHT22;8791;50.876;4.342;2023-09-18T09:32:51;20.80;99.90
17348;DHT22;8791;50.876;4.342;2023-09-18T09:35:23;20.70;99.90
17348;DHT22;8791;50.876;4.342;2023-09-18T09:37:56;20.80;99.90
17348;DHT22;8791;50.876;4.342;2023-09-18T09:40:24;20.70;99.90
17348;DHT22;8791;50.876;4.342;2023-09-18T09:42:53;20.80;99.90
17348;DHT22;8791;50.876;4.342;2023-09-18T09:45:26;20.70;99.90
17348;DHT22;8791;50.876;4.342;2023-09-18T09:47:55;20.70;99.90
17348;DHT22;8791;50.876;4.342;2023-09-18T09:50:22;20.60;99.90
17348;DHT22;8791;50.876;4.342;2023-09-18T09:52:52;20.70;99.90
17348;DHT22;8791;50.876;4.342;2023-09-18T09:55:26;20.80;99.90
17348;DHT22;8791;50.876;4.342;2023-09-18T09:57:55;20.80;99.90
17348;DHT22;8791;50.876;4.342;2023-09-18T10:00:28;20.90;99.90
17348;DHT22;8791;50.876;4.342;2023-09-18T10:02:59;21.10;99.90
17348;DHT22;8791;50.876;4.342;2023-09-18T10:05:30;21.10;99.90
17348;DHT22;8791;50.876;4.342;2023-09-18T10:08:00;21.10;99.90
17348;DHT22;8791;50.876;4.342;2023-09-18T10:10:35;21.10;99.90
17348;DHT22;8791;50.876;4.342;2023-09-18T10:13:09;21.20;99.90
17348;DHT22;8791;50.876;4.342;2023-09-18T10:15:38;21.30;99.90
17348;DHT22;8791;50.876;4.342;2023-09-18T10:18:17;21.20;99.90
17348;DHT22;8791;50.876;4.342;2023-09-18T10:20:46;21.20;99.90
17348;DHT22;8791;50.876;4.342;2023-09-18T10:23:23;21.20;99.90
17348;DHT22;8791;50.876;4.342;2023-09-18T10:25:58;21.00;99.90
17348;DHT22;8791;50.876;4.342;2023-09-18T10:28:28;20.70;99.90
17348;DHT22;8791;50.876;4.342;2023-09-18T10:30:57;20.70;99.90
17348;DHT22;8791;50.876;4.342;2023-09-18T10:33:25;20.90;99.90
17348;DHT22;8791;50.876;4.342;2023-09-18T10:35:54;20.80;99.90
17348;DHT22;8791;50.876;4.342;2023-09-18T10:38:23;20.80;99.90
17348;DHT22;8791;50.876;4.342;2023-09-18T10:40:53;20.80;99.90
17348;DHT22;8791;50.876;4.342;2023-09-18T10:43:22;20.40;99.90
17348;DHT22;8791;50.876;4.342;2023-09-18T10:45:49;20.40;99.90
17348;DHT22;8791;50.876;4.342;2023-09-18T10:48:19;20.40;99.90
17348;DHT22;8791;50.876;4.342;2023-09-18T10:50:48;20.40;99.90
17348;DHT22;8791;50.876;4.342;2023-09-18T10:53:15;20.60;99.90
17348;DHT22;8791;50.876;4.342;2023-09-18T10:55:44;20.80;99.90
17348;DHT22;8791;50.876;4.342;2023-09-18T10:58:11;21.00;99.90
17348;DHT22;8791;50.876;4.342;2023-09-18T11:00:41;21.10;99.90
17348;DHT22;8791;50.876;4.342;2023-09-18T11:03:14;21.20;99.90
17348;DHT22;8791;50.876;4.342;2023-09-18T11:05:44;21.30;99.90
17348;DHT22;8791;50.876;4.342;2023-09-18T11:08:24;21.20;99.90
17348;DHT22;8791;50.876;4.342;2023-09-18T11:10:57;21.50;99.90
17348;DHT22;8791;50.876;4.342;2023-09-18T11:13:28;21.80;99.90
17348;DHT22;8791;50.876;4.342;2023-09-18T11:16:01;22.00;99.90
17348;DHT22;8791;50.876;4.342;2023-09-18T11:18:32;22.30;99.90
17348;DHT22;8791;50.876;4.342;2023-09-18T11:21:07;22.20;99.90
17348;DHT22;8791;50.876;4.342;2023-09-18T11:23:35;22.30;99.90
17348;DHT22;8791;50.876;4.342;2023-09-18T11:26:07;22.40;99.90
17348;DHT22;8791;50.876;4.342;2023-09-18T11:28:35;22.30;99.90
17348;DHT22;8791;50.876;4.342;2023-09-18T11:31:04;22.20;99.90
17348;DHT22;8791;50.876;4.342;2023-09-18T11:33:34;22.00;99.90
17348;DHT22;8791;50.876;4.342;2023-09-18T11:36:05;21.90;99.90
17348;DHT22;8791;50.876;4.342;2023-09-18T11:38:34;21.90;99.90
17348;DHT22;8791;50.876;4.342;2023-09-18T11:41:19;21.90;99.90
17348;DHT22;8791;50.876;4.342;2023-09-18T11:43:46;22.00;99.90
17348;DHT22;8791;50.876;4.342;2023-09-18T11:46:18;22.20;99.90
17348;DHT22;8791;50.876;4.342;2023-09-18T11:48:47;22.30;99.90
17348;DHT22;8791;50.876;4.342;2023-09-18T11:51:21;22.30;99.90
17348;DHT22;8791;50.876;4.342;2023-09-18T11:53:54;22.40;99.90
17348;DHT22;8791;50.876;4.342;2023-09-18T11:56:21;22.50;99.90
17348;DHT22;8791;50.876;4.342;2023-09-18T11:58:50;22.50;99.90
17348;DHT22;8791;50.876;4.342;2023-09-18T12:01:19;22.50;99.90
17348;DHT22;8791;50.876;4.342;2023-09-18T12:03:53;22.60;99.90
17348;DHT22;8791;50.876;4.342;2023-09-18T12:06:21;22.80;99.90
17348;DHT22;8791;50.876;4.342;2023-09-18T12:08:49;22.90;99.90
17348;DHT22;8791;50.876;4.342;2023-09-18T12:11:17;23.10;99.90
17348;DHT22;8791;50.876;4.342;2023-09-18T12:13:45;23.00;99.90
17348;DHT22;8791;50.876;4.342;2023-09-18T12:16:13;23.10;99.90
17348;DHT22;8791;50.876;4.342;2023-09-18T12:18:46;23.20;99.90
17348;DHT22;8791;50.876;4.342;2023-09-18T12:21:15;23.20;99.90
17348;DHT22;8791;50.876;4.342;2023-09-18T12:23:45;23.30;99.90
17348;DHT22;8791;50.876;4.342;2023-09-18T12:26:13;23.30;99.90
17348;DHT22;8791;50.876;4.342;2023-09-18T12:28:41;23.30;99.90
17348;DHT22;8791;50.876;4.342;2023-09-18T12:31:10;23.20;99.90
17348;DHT22;8791;50.876;4.342;2023-09-18T12:33:38;23.20;99.90
17348;DHT22;8791;50.876;4.342;2023-09-18T12:36:08;23.30;99.90
17348;DHT22;8791;50.876;4.342;2023-09-18T12:38:36;23.40;99.90
17348;DHT22;8791;50.876;4.342;2023-09-18T12:41:04;23.50;99.90
17348;DHT22;8791;50.876;4.342;2023-09-18T12:43:37;23.60;99.90
17348;DHT22;8791;50.876;4.342;2023-09-18T12:46:06;23.90;99.90
17348;DHT22;8791;50.876;4.342;2023-09-18T12:48:37;23.90;99.90
17348;DHT22;8791;50.876;4.342;2023-09-18T12:51:12;24.10;99.90
17348;DHT22;8791;50.876;4.342;2023-09-18T12:53:40;24.10;99.90
17348;DHT22;8791;50.876;4.342;2023-09-18T12:56:09;24.30;99.90
17348;DHT22;8791;50.876;4.342;2023-09-18T12:58:36;24.30;99.90
17348;DHT22;8791;50.876;4.342;2023-09-18T13:01:07;24.30;99.90
17348;DHT22;8791;50.876;4.342;2023-09-18T13:03:36;24.40;99.90
17348;DHT22;8791;50.876;4.342;2023-09-18T13:06:09;24.50;99.90
17348;DHT22;8791;50.876;4.342;2023-09-18T13:08:38;24.40;99.90
17348;DHT22;8791;50.876;4.342;2023-09-18T13:11:05;24.40;99.90
17348;DHT22;8791;50.876;4.342;2023-09-18T13:13:33;24.40;99.90
17348;DHT22;8791;50.876;4.342;2023-09-18T13:16:00;24.60;99.90
17348;DHT22;8791;50.876;4.342;2023-09-18T13:18:31;24.60;99.90
17348;DHT22;8791;50.876;4.342;2023-09-18T13:20:58;24.60;99.90
17348;DHT22;8791;50.876;4.342;2023-09-18T13:23:29;24.60;99.90
17348;DHT22;8791;50.876;4.342;2023-09-18T13:26:03;24.60;99.90
17348;DHT22;8791;50.876;4.342;2023-09-18T13:28:30;24.60;99.90
17348;DHT22;8791;50.876;4.342;2023-09-18T13:30:59;24.70;99.90
17348;DHT22;8791;50.876;4.342;2023-09-18T13:33:27;24.70;99.90
17348;DHT22;8791;50.876;4.342;2023-09-18T13:35:54;24.70;99.90
17348;DHT22;8791;50.876;4.342;2023-09-18T13:38:21;24.60;99.90
17348;DHT22;8791;50.876;4.342;2023-09-18T13:40:48;24.60;99.90
17348;DHT22;8791;50.876;4.342;2023-09-18T13:43:17;24.60;99.90
17348;DHT22;8791;50.876;4.342;2023-09-18T13:45:47;24.60;99.90
17348;DHT22;8791;50.876;4.342;2023-09-18T13:48:17;24.70;99.90
17348;DHT22;8791;50.876;4.342;2023-09-18T13:50:44;24.50;99.90
17348;DHT22;8791;50.876;4.342;2023-09-18T13:53:11;24.60;99.90
17348;DHT22;8791;50.876;4.342;2023-09-18T13:55:39;24.80;99.90
17348;DHT22;8791;50.876;4.342;2023-09-18T13:58:06;24.60;99.90
17348;DHT22;8791;50.876;4.342;2023-09-18T14:00:36;24.50;99.90
17348;DHT22;8791;50.876;4.342;2023-09-18T14:03:03;24.50;99.90
17348;DHT22;8791;50.876;4.342;2023-09-18T14:05:30;24.20;99.90
17348;DHT22;8791;50.876;4.342;2023-09-18T14:08:00;24.20;99.90
17348;DHT22;8791;50.876;4.342;2023-09-18T14:10:27;24.10;99.90
17348;DHT22;8791;50.876;4.342;2023-09-18T14:12:54;24.00;99.90
17348;DHT22;8791;50.876;4.342;2023-09-18T14:15:23;24.00;99.90
17348;DHT22;8791;50.876;4.342;2023-09-18T14:17:51;24.00;99.90
17348;DHT22;8791;50.876;4.342;2023-09-18T14:20:18;23.90;99.90
17348;DHT22;8791;50.876;4.342;2023-09-18T14:22:45;23.90;99.90
17348;DHT22;8791;50.876;4.342;2023-09-18T14:25:15;24.10;99.90
17348;DHT22;8791;50.876;4.342;2023-09-18T14:27:42;24.10;99.90
17348;DHT22;8791;50.876;4.342;2023-09-18T14:30:10;24.10;99.90
17348;DHT22;8791;50.876;4.342;2023-09-18T14:32:39;24.20;99.90
17348;DHT22;8791;50.876;4.342;2023-09-18T14:35:08;24.20;99.90
17348;DHT22;8791;50.876;4.342;2023-09-18T14:37:36;24.10;99.90
17348;DHT22;8791;50.876;4.342;2023-09-18T14:40:03;24.00;99.90
17348;DHT22;8791;50.876;4.342;2023-09-18T14:42:31;22.70;99.90
17348;DHT22;8791;50.876;4.342;2023-09-18T14:44:58;21.60;99.90
17348;DHT22;8791;50.876;4.342;2023-09-18T14:47:27;21.00;99.90
17348;DHT22;8791;50.876;4.342;2023-09-18T14:49:54;20.50;99.90
17348;DHT22;8791;50.876;4.342;2023-09-18T14:52:23;20.30;99.90
17348;DHT22;8791;50.876;4.342;2023-09-18T14:54:51;20.00;99.90
17348;DHT22;8791;50.876;4.342;2023-09-18T14:57:18;19.70;99.90
17348;DHT22;8791;50.876;4.342;2023-09-18T14:59:45;19.50;99.90
17348;DHT22;8791;50.876;4.342;2023-09-18T15:02:13;19.50;99.90
17348;DHT22;8791;50.876;4.342;2023-09-18T15:04:41;19.50;99.90
17348;DHT22;8791;50.876;4.342;2023-09-18T15:07:08;19.60;99.90
17348;DHT22;8791;50.876;4.342;2023-09-18T15:09:37;19.70;99.90
17348;DHT22;8791;50.876;4.342;2023-09-18T15:12:05;19.70;99.90
17348;DHT22;8791;50.876;4.342;2023-09-18T15:14:34;19.80;99.90
17348;DHT22;8791;50.876;4.342;2023-09-18T15:17:01;19.80;99.90
17348;DHT22;8791;50.876;4.342;2023-09-18T15:19:28;20.00;99.90
17348;DHT22;8791;50.876;4.342;2023-09-18T15:21:55;20.20;99.90
17348;DHT22;8791;50.876;4.342;2023-09-18T15:24:23;20.30;99.90
17348;DHT22;8791;50.876;4.342;2023-09-18T15:26:54;20.30;99.90
17348;DHT22;8791;50.876;4.342;2023-09-18T15:29:25;20.30;99.90
17348;DHT22;8791;50.876;4.342;2023-09-18T15:31:53;20.40;99.90
17348;DHT22;8791;50.876;4.342;2023-09-18T15:34:26;20.40;99.90
17348;DHT22;8791;50.876;4.342;2023-09-18T15:36:54;20.40;99.90
17348;DHT22;8791;50.876;4.342;2023-09-18T15:39:22;20.40;99.90
17348;DHT22;8791;50.876;4.342;2023-09-18T15:41:50;20.40;99.90
17348;DHT22;8791;50.876;4.342;2023-09-18T15:44:18;20.50;99.90
17348;DHT22;8791;50.876;4.342;2023-09-18T15:46:45;20.50;99.90
17348;DHT22;8791;50.876;4.342;2023-09-18T15:49:13;20.40;99.90
17348;DHT22;8791;50.876;4.342;2023-09-18T15:51:40;20.50;99.90